sensor_id;sensor_type;location;lat;lon;timestamp;pressure;altitude;pressure_sealevel;temperature;humidity
33781;BME280;20097;50.832;19.100;2023-01-28T00:04:41;98793.69;;;-0.66;100.00
33781;BME280;20097;50.832;19.100;2023-01-28T00:09:46;98792.88;;;-0.67;100.00
33781;BME280;20097;50.832;19.100;2023-01-28T00:14:51;98781.81;;;-0.67;100.00
33781;BME280;20097;50.832;19.100;2023-01-28T00:19:55;98791.97;;;-0.66;100.00
33781;BME280;20097;50.832;19.100;2023-01-28T00:25:02;98789.69;;;-0.70;100.00
33781;BME280;20097;50.832;19.100;2023-01-28T00:30:09;98785.63;;;-0.74;100.00
33781;BME280;20097;50.832;19.100;2023-01-28T00:35:14;98787.38;;;-0.75;100.00
33781;BME280;20097;50.832;19.100;2023-01-28T00:40:20;98791.22;;;-0.68;100.00
33781;BME280;20097;50.832;19.100;2023-01-28T00:45:25;98790.56;;;-0.71;100.00
33781;BME280;20097;50.832;19.100;2023-01-28T00:50:30;98784.47;;;-0.69;100.00
33781;BME280;20097;50.832;19.100;2023-01-28T00:55:36;98781.25;;;-0.72;100.00
33781;BME280;20097;50.832;19.100;2023-01-28T01:00:41;98786.38;;;-0.72;100.00
33781;BME280;20097;50.832;19.100;2023-01-28T01:05:46;98795.50;;;-0.68;100.00
33781;BME280;20097;50.832;19.100;2023-01-28T01:10:53;98796.91;;;-0.63;100.00
33781;BME280;20097;50.832;19.100;2023-01-28T01:16:03;98795.06;;;-0.61;100.00
33781;BME280;20097;50.832;19.100;2023-01-28T01:21:10;98803.94;;;-0.66;100.00
33781;BME280;20097;50.832;19.100;2023-01-28T01:26:16;98809.72;;;-0.63;100.00
33781;BME280;20097;50.832;19.100;2023-01-28T01:31:21;98810.16;;;-0.56;100.00
33781;BME280;20097;50.832;19.100;2023-01-28T01:36:26;98810.34;;;-0.59;100.00
33781;BME280;20097;50.832;19.100;2023-01-28T01:41:32;98808.72;;;-0.60;100.00
33781;BME280;20097;50.832;19.100;2023-01-28T01:46:42;98800.38;;;-0.50;100.00
33781;BME280;20097;50.832;19.100;2023-01-28T01:51:52;98793.16;;;-0.57;100.00
33781;BME280;20097;50.832;19.100;2023-01-28T01:57:00;98801.84;;;-0.60;100.00
33781;BME280;20097;50.832;19.100;2023-01-28T02:02:07;98805.94;;;-0.71;100.00
33781;BME280;20097;50.832;19.100;2023-01-28T02:07:15;98809.44;;;-0.72;100.00
33781;BME280;20097;50.832;19.100;2023-01-28T02:12:26;98816.28;;;-0.73;100.00
33781;BME280;20097;50.832;19.100;2023-01-28T02:17:32;98820.53;;;-0.72;100.00
33781;BME280;20097;50.832;19.100;2023-01-28T02:23:20;98820.53;;;-0.72;100.00
33781;BME280;20097;50.832;19.100;2023-01-28T02:28:34;98827.28;;;-0.71;100.00
33781;BME280;20097;50.832;19.100;2023-01-28T02:33:51;98821.69;;;-0.77;100.00
33781;BME280;20097;50.832;19.100;2023-01-28T02:39:00;98829.19;;;-0.74;100.00
33781;BME280;20097;50.832;19.100;2023-01-28T02:44:07;98823.34;;;-0.76;100.00
33781;BME280;20097;50.832;19.100;2023-01-28T02:49:15;98825.75;;;-0.59;100.00
33781;BME280;20097;50.832;19.100;2023-01-28T02:54:34;98832.88;;;-0.64;100.00
33781;BME280;20097;50.832;19.100;2023-01-28T02:59:46;98829.94;;;-0.72;100.00
33781;BME280;20097;50.832;19.100;2023-01-28T03:04:59;98820.22;;;-0.81;100.00
33781;BME280;20097;50.832;19.100;2023-01-28T03:10:11;98822.25;;;-0.86;100.00
33781;BME280;20097;50.832;19.100;2023-01-28T03:15:22;98827.19;;;-0.83;100.00
33781;BME280;20097;50.832;19.100;2023-01-28T03:20:53;98825.28;;;-0.80;100.00
33781;BME280;20097;50.832;19.100;2023-01-28T03:26:20;98822.59;;;-0.92;100.00
33781;BME280;20097;50.832;19.100;2023-01-28T03:31:45;98826.63;;;-0.88;100.00
33781;BME280;20097;50.832;19.100;2023-01-28T03:37:08;98828.09;;;-0.84;100.00
33781;BME280;20097;50.832;19.100;2023-01-28T03:42:20;98822.88;;;-0.97;100.00
33781;BME280;20097;50.832;19.100;2023-01-28T03:47:39;98822.59;;;-0.92;100.00
33781;BME280;20097;50.832;19.100;2023-01-28T03:52:46;98826.34;;;-0.98;100.00
33781;BME280;20097;50.832;19.100;2023-01-28T03:58:02;98826.53;;;-0.87;100.00
33781;BME280;20097;50.832;19.100;2023-01-28T04:03:12;98829.72;;;-0.97;100.00
33781;BME280;20097;50.832;19.100;2023-01-28T04:08:39;98838.69;;;-1.04;100.00
33781;BME280;20097;50.832;19.100;2023-01-28T04:14:27;98831.56;;;-0.99;100.00
33781;BME280;20097;50.832;19.100;2023-01-28T04:19:46;98833.84;;;-0.95;100.00
33781;BME280;20097;50.832;19.100;2023-01-28T04:24:52;98839.34;;;-1.01;100.00
33781;BME280;20097;50.832;19.100;2023-01-28T04:29:57;98837.59;;;-1.00;100.00
33781;BME280;20097;50.832;19.100;2023-01-28T04:35:16;98844.31;;;-1.13;100.00
33781;BME280;20097;50.832;19.100;2023-01-28T04:40:39;98847.91;;;-1.02;100.00
33781;BME280;20097;50.832;19.100;2023-01-28T04:45:48;98846.88;;;-1.13;100.00
33781;BME280;20097;50.832;19.100;2023-01-28T04:51:16;98840.88;;;-1.12;100.00
33781;BME280;20097;50.832;19.100;2023-01-28T04:56:43;98836.31;;;-1.07;100.00
33781;BME280;20097;50.832;19.100;2023-01-28T05:01:48;98847.91;;;-1.16;100.00
33781;BME280;20097;50.832;19.100;2023-01-28T05:06:55;98857.88;;;-1.11;100.00
33781;BME280;20097;50.832;19.100;2023-01-28T05:12:06;98854.84;;;-1.18;100.00
33781;BME280;20097;50.832;19.100;2023-01-28T05:17:13;98855.59;;;-1.16;100.00
33781;BME280;20097;50.832;19.100;2023-01-28T05:22:18;98873.25;;;-1.11;100.00
33781;BME280;20097;50.832;19.100;2023-01-28T05:27:49;98874.31;;;-1.15;100.00
33781;BME280;20097;50.832;19.100;2023-01-28T05:32:55;98881.78;;;-1.26;100.00
33781;BME280;20097;50.832;19.100;2023-01-28T05:38:02;98890.66;;;-1.32;100.00
33781;BME280;20097;50.832;19.100;2023-01-28T05:43:07;98897.59;;;-1.34;100.00
33781;BME280;20097;50.832;19.100;2023-01-28T05:48:20;98896.44;;;-1.28;100.00
33781;BME280;20097;50.832;19.100;2023-01-28T05:53:37;98899.72;;;-1.26;100.00
33781;BME280;20097;50.832;19.100;2023-01-28T05:58:42;98898.06;;;-1.27;100.00
33781;BME280;20097;50.832;19.100;2023-01-28T06:03:46;98907.38;;;-1.26;100.00
33781;BME280;20097;50.832;19.100;2023-01-28T06:08:52;98911.06;;;-1.30;100.00
33781;BME280;20097;50.832;19.100;2023-01-28T06:14:02;98908.50;;;-1.30;100.00
33781;BME280;20097;50.832;19.100;2023-01-28T06:19:18;98912.13;;;-1.34;100.00
33781;BME280;20097;50.832;19.100;2023-01-28T06:24:24;98913.78;;;-1.33;100.00
33781;BME280;20097;50.832;19.100;2023-01-28T06:29:28;98917.81;;;-1.29;100.00
33781;BME280;20097;50.832;19.100;2023-01-28T06:34:33;98919.53;;;-1.14;100.00
33781;BME280;20097;50.832;19.100;2023-01-28T06:39:39;98925.72;;;-1.18;100.00
33781;BME280;20097;50.832;19.100;2023-01-28T06:44:43;98925.16;;;-1.23;100.00
33781;BME280;20097;50.832;19.100;2023-01-28T06:49:47;98935.28;;;-1.22;100.00
33781;BME280;20097;50.832;19.100;2023-01-28T06:54:53;98936.78;;;-1.18;100.00
33781;BME280;20097;50.832;19.100;2023-01-28T06:59:57;98951.25;;;-1.17;100.00
33781;BME280;20097;50.832;19.100;2023-01-28T07:05:01;98953.88;;;-1.18;100.00
33781;BME280;20097;50.832;19.100;2023-01-28T07:10:09;98956.13;;;-1.12;100.00
33781;BME280;20097;50.832;19.100;2023-01-28T07:15:13;98964.78;;;-1.15;100.00
33781;BME280;20097;50.832;19.100;2023-01-28T07:20:19;98959.66;;;-1.15;100.00
33781;BME280;20097;50.832;19.100;2023-01-28T07:25:25;98968.75;;;-1.09;100.00
33781;BME280;20097;50.832;19.100;2023-01-28T07:30:30;98964.69;;;-0.98;100.00
33781;BME280;20097;50.832;19.100;2023-01-28T07:35:34;98988.06;;;-0.88;100.00
33781;BME280;20097;50.832;19.100;2023-01-28T07:40:40;98990.88;;;-0.93;100.00
33781;BME280;20097;50.832;19.100;2023-01-28T07:45:45;99000.66;;;-0.99;100.00
33781;BME280;20097;50.832;19.100;2023-01-28T07:50:50;98997.25;;;-1.00;100.00
33781;BME280;20097;50.832;19.100;2023-01-28T07:55:59;99001.22;;;-0.94;100.00
33781;BME280;20097;50.832;19.100;2023-01-28T08:01:05;98997.75;;;-0.93;100.00
33781;BME280;20097;50.832;19.100;2023-01-28T08:06:09;98993.34;;;-0.91;100.00
33781;BME280;20097;50.832;19.100;2023-01-28T08:11:14;98991.91;;;-0.81;100.00
33781;BME280;20097;50.832;19.100;2023-01-28T08:16:19;98989.03;;;-0.75;100.00
33781;BME280;20097;50.832;19.100;2023-01-28T08:21:24;98994.66;;;-0.84;100.00
33781;BME280;20097;50.832;19.100;2023-01-28T08:26:30;98996.53;;;-0.72;100.00
33781;BME280;20097;50.832;19.100;2023-01-28T08:31:34;98987.06;;;-0.56;100.00
33781;BME280;20097;50.832;19.100;2023-01-28T08:36:39;98992.66;;;-0.50;100.00
33781;BME280;20097;50.832;19.100;2023-01-28T08:41:45;98993.59;;;-0.51;100.00
33781;BME280;20097;50.832;19.100;2023-01-28T08:46:49;98992.38;;;-0.45;100.00
33781;BME280;20097;50.832;19.100;2023-01-28T08:51:53;99000.66;;;-0.40;100.00
33781;BME280;20097;50.832;19.100;2023-01-28T08:56:59;98992.56;;;-0.48;100.00
33781;BME280;20097;50.832;19.100;2023-01-28T09:02:04;98999.09;;;-0.43;100.00
33781;BME280;20097;50.832;19.100;2023-01-28T09:07:08;99005.56;;;-0.51;100.00
33781;BME280;20097;50.832;19.100;2023-01-28T09:12:14;99012.94;;;-0.31;100.00
33781;BME280;20097;50.832;19.100;2023-01-28T09:17:19;99013.50;;;-0.26;100.00
33781;BME280;20097;50.832;19.100;2023-01-28T09:22:24;99018.78;;;-0.29;100.00
33781;BME280;20097;50.832;19.100;2023-01-28T09:27:30;99017.81;;;-0.13;100.00
33781;BME280;20097;50.832;19.100;2023-01-28T09:32:35;99024.31;;;-0.21;100.00
33781;BME280;20097;50.832;19.100;2023-01-28T09:37:39;99019.13;;;-0.20;100.00
33781;BME280;20097;50.832;19.100;2023-01-28T09:42:53;99015.81;;;-0.08;100.00
33781;BME280;20097;50.832;19.100;2023-01-28T09:48:03;99025.00;;;-0.04;100.00
33781;BME280;20097;50.832;19.100;2023-01-28T09:53:15;99017.38;;;0.09;100.00
33781;BME280;20097;50.832;19.100;2023-01-28T09:58:22;99019.16;;;0.23;100.00
33781;BME280;20097;50.832;19.100;2023-01-28T10:03:38;99011.91;;;0.29;100.00
33781;BME280;20097;50.832;19.100;2023-01-28T10:09:08;99017.22;;;-0.02;100.00
33781;BME280;20097;50.832;19.100;2023-01-28T10:14:34;99015.19;;;0.03;100.00
33781;BME280;20097;50.832;19.100;2023-01-28T10:19:48;99010.81;;;0.19;100.00
33781;BME280;20097;50.832;19.100;2023-01-28T10:24:57;99006.94;;;0.12;100.00
33781;BME280;20097;50.832;19.100;2023-01-28T10:30:19;99018.03;;;0.27;100.00
33781;BME280;20097;50.832;19.100;2023-01-28T10:35:24;99007.78;;;0.13;100.00
33781;BME280;20097;50.832;19.100;2023-01-28T10:40:29;99009.59;;;0.11;100.00
33781;BME280;20097;50.832;19.100;2023-01-28T10:45:36;99001.25;;;-0.07;100.00
33781;BME280;20097;50.832;19.100;2023-01-28T10:50:50;99004.94;;;0.03;100.00
33781;BME280;20097;50.832;19.100;2023-01-28T10:55:57;99000.41;;;-0.08;100.00
33781;BME280;20097;50.832;19.100;2023-01-28T11:01:06;98993.00;;;-0.12;100.00
33781;BME280;20097;50.832;19.100;2023-01-28T11:06:24;99002.31;;;-0.25;100.00
33781;BME280;20097;50.832;19.100;2023-01-28T11:11:28;99000.69;;;-0.26;100.00
33781;BME280;20097;50.832;19.100;2023-01-28T11:16:34;98993.72;;;-0.24;100.00
33781;BME280;20097;50.832;19.100;2023-01-28T11:21:48;98990.53;;;-0.14;100.00
33781;BME280;20097;50.832;19.100;2023-01-28T11:26:57;98994.44;;;-0.08;100.00
33781;BME280;20097;50.832;19.100;2023-01-28T11:32:05;98996.13;;;-0.07;100.00
33781;BME280;20097;50.832;19.100;2023-01-28T11:37:21;98991.25;;;0.03;100.00
33781;BME280;20097;50.832;19.100;2023-01-28T11:42:26;98987.59;;;0.07;100.00
33781;BME280;20097;50.832;19.100;2023-01-28T11:48:08;98988.03;;;0.13;100.00
33781;BME280;20097;50.832;19.100;2023-01-28T11:53:47;98982.09;;;0.27;100.00
33781;BME280;20097;50.832;19.100;2023-01-28T11:59:12;98980.75;;;0.21;100.00
33781;BME280;20097;50.832;19.100;2023-01-28T12:04:37;98977.03;;;0.25;100.00
33781;BME280;20097;50.832;19.100;2023-01-28T12:09:54;98981.63;;;0.20;100.00
33781;BME280;20097;50.832;19.100;2023-01-28T12:15:44;98978.31;;;0.18;100.00
33781;BME280;20097;50.832;19.100;2023-01-28T12:21:02;98980.75;;;0.21;100.00
33781;BME280;20097;50.832;19.100;2023-01-28T12:26:12;98976.50;;;0.06;100.00
33781;BME280;20097;50.832;19.100;2023-01-28T12:31:41;98970.47;;;0.07;100.00
33781;BME280;20097;50.832;19.100;2023-01-28T12:36:59;98972.56;;;0.00;100.00
33781;BME280;20097;50.832;19.100;2023-01-28T12:42:14;98983.94;;;-0.04;100.00
33781;BME280;20097;50.832;19.100;2023-01-28T12:47:27;98990.25;;;-0.23;100.00
33781;BME280;20097;50.832;19.100;2023-01-28T12:52:41;98985.03;;;-0.22;100.00
33781;BME280;20097;50.832;19.100;2023-01-28T12:57:48;98988.47;;;-0.23;100.00
33781;BME280;20097;50.832;19.100;2023-01-28T13:03:07;98990.34;;;-0.25;100.00
33781;BME280;20097;50.832;19.100;2023-01-28T13:08:20;98991.13;;;-0.24;100.00
33781;BME280;20097;50.832;19.100;2023-01-28T13:13:29;98997.28;;;-0.27;100.00
33781;BME280;20097;50.832;19.100;2023-01-28T13:18:44;98995.69;;;-0.43;100.00
33781;BME280;20097;50.832;19.100;2023-01-28T13:24:03;98990.69;;;-0.31;100.00
33781;BME280;20097;50.832;19.100;2023-01-28T13:29:19;98997.19;;;-0.25;100.00
33781;BME280;20097;50.832;19.100;2023-01-28T13:34:34;98996.03;;;-0.20;100.00
33781;BME280;20097;50.832;19.100;2023-01-28T13:39:46;99001.16;;;-0.20;100.00
33781;BME280;20097;50.832;19.100;2023-01-28T13:44:53;98999.22;;;-0.16;100.00
33781;BME280;20097;50.832;19.100;2023-01-28T13:50:01;99001.41;;;-0.24;100.00
33781;BME280;20097;50.832;19.100;2023-01-28T13:55:18;98997.75;;;-0.20;100.00
33781;BME280;20097;50.832;19.100;2023-01-28T14:06:58;99006.53;;;-0.24;100.00
33781;BME280;20097;50.832;19.100;2023-01-28T14:12:40;99008.03;;;-0.20;100.00
33781;BME280;20097;50.832;19.100;2023-01-28T14:17:50;99018.09;;;-0.31;100.00
33781;BME280;20097;50.832;19.100;2023-01-28T14:23:00;99015.44;;;-0.30;100.00
33781;BME280;20097;50.832;19.100;2023-01-28T14:28:11;99013.84;;;-0.32;100.00
33781;BME280;20097;50.832;19.100;2023-01-28T14:33:21;99011.94;;;-0.29;100.00
33781;BME280;20097;50.832;19.100;2023-01-28T14:38:27;99023.22;;;-0.31;100.00
33781;BME280;20097;50.832;19.100;2023-01-28T14:43:33;99016.22;;;-0.29;100.00
33781;BME280;20097;50.832;19.100;2023-01-28T14:48:49;99008.72;;;-0.32;100.00
33781;BME280;20097;50.832;19.100;2023-01-28T14:59:41;99020.47;;;-0.28;100.00
33781;BME280;20097;50.832;19.100;2023-01-28T15:04:48;99021.34;;;-0.29;100.00
33781;BME280;20097;50.832;19.100;2023-01-28T15:10:00;99028.91;;;-0.26;100.00
33781;BME280;20097;50.832;19.100;2023-01-28T15:15:10;99029.72;;;-0.26;100.00
33781;BME280;20097;50.832;19.100;2023-01-28T15:20:20;99036.75;;;-0.29;100.00
33781;BME280;20097;50.832;19.100;2023-01-28T15:25:28;99037.31;;;-0.24;100.00
33781;BME280;20097;50.832;19.100;2023-01-28T15:30:35;99044.28;;;-0.26;100.00
33781;BME280;20097;50.832;19.100;2023-01-28T15:35:46;99039.84;;;-0.38;100.00
33781;BME280;20097;50.832;19.100;2023-01-28T15:40:55;99055.63;;;-0.30;100.00
33781;BME280;20097;50.832;19.100;2023-01-28T15:46:02;99052.00;;;-0.26;100.00
33781;BME280;20097;50.832;19.100;2023-01-28T15:51:19;99050.78;;;-0.35;100.00
33781;BME280;20097;50.832;19.100;2023-01-28T15:56:28;99051.34;;;-0.30;100.00
33781;BME280;20097;50.832;19.100;2023-01-28T16:01:34;99058.47;;;-0.35;100.00
33781;BME280;20097;50.832;19.100;2023-01-28T16:06:40;99064.00;;;-0.42;100.00
33781;BME280;20097;50.832;19.100;2023-01-28T16:11:44;99066.66;;;-0.44;100.00
33781;BME280;20097;50.832;19.100;2023-01-28T16:16:50;99071.97;;;-0.47;100.00
33781;BME280;20097;50.832;19.100;2023-01-28T16:21:57;99082.50;;;-0.51;100.00
33781;BME280;20097;50.832;19.100;2023-01-28T16:27:04;99083.06;;;-0.46;100.00
33781;BME280;20097;50.832;19.100;2023-01-28T16:32:28;99087.53;;;-0.50;100.00
33781;BME280;20097;50.832;19.100;2023-01-28T16:37:33;99082.00;;;-0.58;100.00
33781;BME280;20097;50.832;19.100;2023-01-28T16:42:43;99085.22;;;-0.54;100.00
33781;BME280;20097;50.832;19.100;2023-01-28T16:47:49;99085.44;;;-0.43;100.00
33781;BME280;20097;50.832;19.100;2023-01-28T16:52:55;99089.16;;;-0.49;100.00
33781;BME280;20097;50.832;19.100;2023-01-28T16:57:59;99082.41;;;-0.50;100.00
33781;BME280;20097;50.832;19.100;2023-01-28T17:03:05;99099.50;;;-0.50;100.00
33781;BME280;20097;50.832;19.100;2023-01-28T17:08:10;99092.47;;;-0.47;100.00
33781;BME280;20097;50.832;19.100;2023-01-28T17:13:15;99103.56;;;-0.46;100.00
33781;BME280;20097;50.832;19.100;2023-01-28T17:18:21;99105.81;;;-0.56;100.00
33781;BME280;20097;50.832;19.100;2023-01-28T17:23:25;99098.53;;;-0.48;100.00
33781;BME280;20097;50.832;19.100;2023-01-28T17:28:29;99112.59;;;-0.55;100.00
33781;BME280;20097;50.832;19.100;2023-01-28T17:33:35;99114.19;;;-0.52;100.00
33781;BME280;20097;50.832;19.100;2023-01-28T17:38:43;99110.84;;;-0.70;100.00
33781;BME280;20097;50.832;19.100;2023-01-28T17:43:53;99120.31;;;-0.70;100.00
33781;BME280;20097;50.832;19.100;2023-01-28T17:49:00;99122.59;;;-0.81;100.00
33781;BME280;20097;50.832;19.100;2023-01-28T17:54:05;99115.09;;;-0.84;100.00
33781;BME280;20097;50.832;19.100;2023-01-28T17:59:10;99127.81;;;-0.83;100.00
33781;BME280;20097;50.832;19.100;2023-01-28T18:04:20;99131.88;;;-0.79;100.00
33781;BME280;20097;50.832;19.100;2023-01-28T18:09:25;99123.53;;;-0.82;100.00
33781;BME280;20097;50.832;19.100;2023-01-28T18:14:29;99129.06;;;-0.90;100.00
33781;BME280;20097;50.832;19.100;2023-01-28T18:19:35;99130.06;;;-0.92;100.00
33781;BME280;20097;50.832;19.100;2023-01-28T18:24:39;99136.44;;;-0.84;100.00
33781;BME280;20097;50.832;19.100;2023-01-28T18:29:44;99145.50;;;-0.94;100.00
33781;BME280;20097;50.832;19.100;2023-01-28T18:34:51;99141.22;;;-0.93;100.00
33781;BME280;20097;50.832;19.100;2023-01-28T18:39:56;99150.88;;;-0.83;100.00
33781;BME280;20097;50.832;19.100;2023-01-28T18:45:01;99155.28;;;-0.85;100.00
33781;BME280;20097;50.832;19.100;2023-01-28T18:50:08;99153.13;;;-0.77;100.00
33781;BME280;20097;50.832;19.100;2023-01-28T18:55:12;99153.94;;;-0.76;100.00
33781;BME280;20097;50.832;19.100;2023-01-28T19:00:18;99143.09;;;-0.81;100.00
33781;BME280;20097;50.832;19.100;2023-01-28T19:05:24;99139.41;;;-0.91;100.00
33781;BME280;20097;50.832;19.100;2023-01-28T19:10:29;99147.41;;;-0.97;100.00
33781;BME280;20097;50.832;19.100;2023-01-28T19:15:34;99145.34;;;-0.91;100.00
33781;BME280;20097;50.832;19.100;2023-01-28T19:20:39;99149.25;;;-0.99;100.00
33781;BME280;20097;50.832;19.100;2023-01-28T19:25:45;99147.09;;;-0.91;100.00
33781;BME280;20097;50.832;19.100;2023-01-28T19:30:49;99152.06;;;-0.88;100.00
33781;BME280;20097;50.832;19.100;2023-01-28T19:35:56;99169.31;;;-0.92;100.00
33781;BME280;20097;50.832;19.100;2023-01-28T19:41:02;99179.66;;;-0.93;100.00
33781;BME280;20097;50.832;19.100;2023-01-28T19:46:09;99179.59;;;-1.09;100.00
33781;BME280;20097;50.832;19.100;2023-01-28T19:51:18;99177.72;;;-1.05;100.00
33781;BME280;20097;50.832;19.100;2023-01-28T19:56:25;99175.31;;;-1.08;100.00
33781;BME280;20097;50.832;19.100;2023-01-28T20:01:32;99182.59;;;-1.16;100.00
33781;BME280;20097;50.832;19.100;2023-01-28T20:06:38;99187.09;;;-1.04;100.00
33781;BME280;20097;50.832;19.100;2023-01-28T20:11:43;99186.06;;;-1.17;100.00
33781;BME280;20097;50.832;19.100;2023-01-28T20:16:47;99198.28;;;-1.22;100.00
33781;BME280;20097;50.832;19.100;2023-01-28T20:21:53;99194.25;;;-1.11;100.00
33781;BME280;20097;50.832;19.100;2023-01-28T20:26:57;99207.88;;;-1.10;100.00
33781;BME280;20097;50.832;19.100;2023-01-28T20:32:02;99198.38;;;-1.08;100.00
33781;BME280;20097;50.832;19.100;2023-01-28T20:37:21;99194.34;;;-1.12;100.00
33781;BME280;20097;50.832;19.100;2023-01-28T20:42:25;99195.97;;;-1.11;100.00
33781;BME280;20097;50.832;19.100;2023-01-28T20:47:30;99204.72;;;-1.15;100.00
33781;BME280;20097;50.832;19.100;2023-01-28T20:52:36;99217.31;;;-1.11;100.00
33781;BME280;20097;50.832;19.100;2023-01-28T20:57:40;99210.25;;;-1.23;100.00
33781;BME280;20097;50.832;19.100;2023-01-28T21:02:47;99218.59;;;-1.19;100.00
33781;BME280;20097;50.832;19.100;2023-01-28T21:07:52;99222.59;;;-1.31;100.00
33781;BME280;20097;50.832;19.100;2023-01-28T21:12:56;99226.38;;;-1.38;100.00
33781;BME280;20097;50.832;19.100;2023-01-28T21:18:01;99223.44;;;-1.30;100.00
33781;BME280;20097;50.832;19.100;2023-01-28T21:23:07;99213.19;;;-1.30;100.00
33781;BME280;20097;50.832;19.100;2023-01-28T21:28:18;99216.81;;;-1.34;100.00
33781;BME280;20097;50.832;19.100;2023-01-28T21:33:22;99223.88;;;-1.40;100.00
33781;BME280;20097;50.832;19.100;2023-01-28T21:38:28;99228.03;;;-1.37;100.00
33781;BME280;20097;50.832;19.100;2023-01-28T21:43:33;99225.25;;;-1.32;100.00
33781;BME280;20097;50.832;19.100;2023-01-28T21:48:37;99232.56;;;-1.42;100.00
33781;BME280;20097;50.832;19.100;2023-01-28T21:53:43;99240.84;;;-1.37;100.00
33781;BME280;20097;50.832;19.100;2023-01-28T21:58:48;99227.38;;;-1.41;100.00
33781;BME280;20097;50.832;19.100;2023-01-28T22:04:10;99228.13;;;-1.38;100.00
33781;BME280;20097;50.832;19.100;2023-01-28T22:09:16;99239.81;;;-1.50;100.00
33781;BME280;20097;50.832;19.100;2023-01-28T22:14:21;99248.44;;;-1.53;100.00
33781;BME280;20097;50.832;19.100;2023-01-28T22:19:25;99255.53;;;-1.58;100.00
33781;BME280;20097;50.832;19.100;2023-01-28T22:24:31;99256.97;;;-1.52;100.00
33781;BME280;20097;50.832;19.100;2023-01-28T22:29:36;99249.22;;;-1.51;100.00
33781;BME280;20097;50.832;19.100;2023-01-28T22:34:40;99238.13;;;-1.51;100.00
33781;BME280;20097;50.832;19.100;2023-01-28T22:39:47;99235.19;;;-1.61;100.00
33781;BME280;20097;50.832;19.100;2023-01-28T22:44:52;99229.03;;;-1.57;100.00
33781;BME280;20097;50.832;19.100;2023-01-28T22:49:56;99220.66;;;-1.43;100.00
33781;BME280;20097;50.832;19.100;2023-01-28T22:55:03;99223.00;;;-1.56;100.00
33781;BME280;20097;50.832;19.100;2023-01-28T23:00:11;99218.88;;;-1.58;100.00
33781;BME280;20097;50.832;19.100;2023-01-28T23:05:16;99207.03;;;-1.61;100.00
33781;BME280;20097;50.832;19.100;2023-01-28T23:16:19;99208.19;;;-1.66;100.00
33781;BME280;20097;50.832;19.100;2023-01-28T23:21:41;99210.31;;;-1.74;100.00
33781;BME280;20097;50.832;19.100;2023-01-28T23:27:04;99198.63;;;-1.80;100.00
33781;BME280;20097;50.832;19.100;2023-01-28T23:32:10;99193.66;;;-1.83;100.00
33781;BME280;20097;50.832;19.100;2023-01-28T23:37:15;99208.28;;;-1.68;100.00
33781;BME280;20097;50.832;19.100;2023-01-28T23:42:20;99204.13;;;-1.70;100.00
33781;BME280;20097;50.832;19.100;2023-01-28T23:47:27;99212.41;;;-1.82;100.00
33781;BME280;20097;50.832;19.100;2023-01-28T23:52:32;99203.34;;;-1.72;100.00
33781;BME280;20097;50.832;19.100;2023-01-28T23:57:36;99220.16;;;-1.67;100.00
